sensor_id;sensor_type;location;lat;lon;timestamp;P1;durP1;ratioP1;P2;durP2;ratioP2
69280;SDS011;56392;51.082;17.080;2023-01-20T00:04:59;78.23;;;30.23;;
69280;SDS011;56392;51.082;17.080;2023-01-20T00:10:22;81.13;;;31.80;;
69280;SDS011;56392;51.082;17.080;2023-01-20T00:15:47;93.88;;;32.50;;
69280;SDS011;56392;51.082;17.080;2023-01-20T00:21:11;103.50;;;33.73;;
69280;SDS011;56392;51.082;17.080;2023-01-20T00:26:37;116.90;;;36.30;;
69280;SDS011;56392;51.082;17.080;2023-01-20T00:32:01;109.38;;;32.50;;
69280;SDS011;56392;51.082;17.080;2023-01-20T00:37:25;97.77;;;32.90;;
69280;SDS011;56392;51.082;17.080;2023-01-20T00:42:48;107.43;;;35.57;;
69280;SDS011;56392;51.082;17.080;2023-01-20T00:48:12;98.13;;;32.88;;
69280;SDS011;56392;51.082;17.080;2023-01-20T00:53:35;96.17;;;33.23;;
69280;SDS011;56392;51.082;17.080;2023-01-20T00:58:59;100.30;;;33.87;;
69280;SDS011;56392;51.082;17.080;2023-01-20T01:04:23;101.88;;;35.42;;
69280;SDS011;56392;51.082;17.080;2023-01-20T01:09:46;94.57;;;32.60;;
69280;SDS011;56392;51.082;17.080;2023-01-20T01:15:10;138.80;;;40.47;;
69280;SDS011;56392;51.082;17.080;2023-01-20T01:20:37;135.60;;;39.42;;
69280;SDS011;56392;51.082;17.080;2023-01-20T01:26:00;119.53;;;38.93;;
69280;SDS011;56392;51.082;17.080;2023-01-20T01:31:24;138.57;;;39.87;;
69280;SDS011;56392;51.082;17.080;2023-01-20T01:36:48;106.55;;;37.58;;
69280;SDS011;56392;51.082;17.080;2023-01-20T01:42:11;98.43;;;36.33;;
69280;SDS011;56392;51.082;17.080;2023-01-20T01:47:35;102.83;;;36.93;;
69280;SDS011;56392;51.082;17.080;2023-01-20T01:53:03;105.95;;;37.22;;
69280;SDS011;56392;51.082;17.080;2023-01-20T01:58:28;100.43;;;36.63;;
69280;SDS011;56392;51.082;17.080;2023-01-20T02:03:55;97.90;;;34.20;;
69280;SDS011;56392;51.082;17.080;2023-01-20T02:09:22;97.28;;;34.53;;
69280;SDS011;56392;51.082;17.080;2023-01-20T02:14:47;104.00;;;35.50;;
69280;SDS011;56392;51.082;17.080;2023-01-20T02:32:14;102.30;;;35.80;;
69280;SDS011;56392;51.082;17.080;2023-01-20T02:37:47;110.23;;;35.93;;
69280;SDS011;56392;51.082;17.080;2023-01-20T02:43:17;100.75;;;35.88;;
69280;SDS011;56392;51.082;17.080;2023-01-20T02:48:50;105.73;;;36.47;;
69280;SDS011;56392;51.082;17.080;2023-01-20T02:54:17;99.37;;;37.23;;
69280;SDS011;56392;51.082;17.080;2023-01-20T02:59:44;104.13;;;36.38;;
69280;SDS011;56392;51.082;17.080;2023-01-20T03:05:16;113.50;;;38.60;;
69280;SDS011;56392;51.082;17.080;2023-01-20T03:10:42;102.73;;;37.13;;
69280;SDS011;56392;51.082;17.080;2023-01-20T03:16:10;97.20;;;35.78;;
69280;SDS011;56392;51.082;17.080;2023-01-20T03:21:38;112.97;;;41.73;;
69280;SDS011;56392;51.082;17.080;2023-01-20T03:27:03;127.07;;;44.30;;
69280;SDS011;56392;51.082;17.080;2023-01-20T03:32:28;130.00;;;45.88;;
69280;SDS011;56392;51.082;17.080;2023-01-20T03:37:55;119.97;;;41.03;;
69280;SDS011;56392;51.082;17.080;2023-01-20T03:43:19;114.97;;;40.80;;
69280;SDS011;56392;51.082;17.080;2023-01-20T03:48:50;122.60;;;41.63;;
69280;SDS011;56392;51.082;17.080;2023-01-20T03:54:22;126.30;;;43.50;;
69280;SDS011;56392;51.082;17.080;2023-01-20T03:59:48;112.78;;;40.03;;
69280;SDS011;56392;51.082;17.080;2023-01-20T04:05:13;111.05;;;40.85;;
69280;SDS011;56392;51.082;17.080;2023-01-20T04:10:38;101.70;;;38.23;;
69280;SDS011;56392;51.082;17.080;2023-01-20T04:16:07;102.32;;;37.50;;
69280;SDS011;56392;51.082;17.080;2023-01-20T04:21:33;101.57;;;38.20;;
69280;SDS011;56392;51.082;17.080;2023-01-20T04:26:58;100.73;;;37.63;;
69280;SDS011;56392;51.082;17.080;2023-01-20T04:32:21;111.28;;;38.00;;
69280;SDS011;56392;51.082;17.080;2023-01-20T04:37:44;104.77;;;37.27;;
69280;SDS011;56392;51.082;17.080;2023-01-20T04:43:09;114.43;;;39.73;;
69280;SDS011;56392;51.082;17.080;2023-01-20T04:48:32;110.78;;;39.08;;
69280;SDS011;56392;51.082;17.080;2023-01-20T04:53:56;105.63;;;37.73;;
69280;SDS011;56392;51.082;17.080;2023-01-20T04:59:20;106.20;;;37.83;;
69280;SDS011;56392;51.082;17.080;2023-01-20T05:04:44;108.15;;;40.33;;
69280;SDS011;56392;51.082;17.080;2023-01-20T05:10:07;111.15;;;39.22;;
69280;SDS011;56392;51.082;17.080;2023-01-20T05:15:33;112.17;;;39.90;;
69280;SDS011;56392;51.082;17.080;2023-01-20T05:20:56;109.43;;;39.08;;
69280;SDS011;56392;51.082;17.080;2023-01-20T05:26:19;106.20;;;38.77;;
69280;SDS011;56392;51.082;17.080;2023-01-20T05:31:43;113.80;;;38.63;;
69280;SDS011;56392;51.082;17.080;2023-01-20T05:37:06;111.80;;;40.50;;
69280;SDS011;56392;51.082;17.080;2023-01-20T05:42:30;110.93;;;38.53;;
69280;SDS011;56392;51.082;17.080;2023-01-20T05:47:55;105.37;;;37.80;;
69280;SDS011;56392;51.082;17.080;2023-01-20T05:53:19;116.28;;;40.58;;
69280;SDS011;56392;51.082;17.080;2023-01-20T05:58:42;111.80;;;40.87;;
69280;SDS011;56392;51.082;17.080;2023-01-20T06:04:07;106.97;;;39.73;;
69280;SDS011;56392;51.082;17.080;2023-01-20T06:09:30;105.20;;;38.83;;
69280;SDS011;56392;51.082;17.080;2023-01-20T06:14:53;104.97;;;38.17;;
69280;SDS011;56392;51.082;17.080;2023-01-20T06:20:18;106.33;;;38.13;;
69280;SDS011;56392;51.082;17.080;2023-01-20T06:25:41;114.88;;;40.00;;
69280;SDS011;56392;51.082;17.080;2023-01-20T06:31:05;97.37;;;37.80;;
69280;SDS011;56392;51.082;17.080;2023-01-20T06:36:30;101.30;;;36.83;;
69280;SDS011;56392;51.082;17.080;2023-01-20T06:41:55;93.90;;;37.10;;
69280;SDS011;56392;51.082;17.080;2023-01-20T06:47:19;102.67;;;38.03;;
69280;SDS011;56392;51.082;17.080;2023-01-20T06:52:43;97.53;;;36.00;;
69280;SDS011;56392;51.082;17.080;2023-01-20T06:58:08;98.65;;;36.13;;
69280;SDS011;56392;51.082;17.080;2023-01-20T07:03:31;100.43;;;37.17;;
69280;SDS011;56392;51.082;17.080;2023-01-20T07:08:55;95.60;;;36.93;;
69280;SDS011;56392;51.082;17.080;2023-01-20T07:14:19;94.82;;;36.42;;
69280;SDS011;56392;51.082;17.080;2023-01-20T07:19:43;92.67;;;35.17;;
69280;SDS011;56392;51.082;17.080;2023-01-20T07:25:08;105.40;;;37.70;;
69280;SDS011;56392;51.082;17.080;2023-01-20T07:30:31;109.70;;;40.47;;
69280;SDS011;56392;51.082;17.080;2023-01-20T07:35:55;106.07;;;41.90;;
69280;SDS011;56392;51.082;17.080;2023-01-20T07:41:20;102.50;;;39.80;;
69280;SDS011;56392;51.082;17.080;2023-01-20T07:46:44;98.25;;;38.67;;
69280;SDS011;56392;51.082;17.080;2023-01-20T07:52:07;94.30;;;34.67;;
69280;SDS011;56392;51.082;17.080;2023-01-20T07:57:31;91.17;;;36.43;;
69280;SDS011;56392;51.082;17.080;2023-01-20T08:02:55;88.88;;;32.47;;
69280;SDS011;56392;51.082;17.080;2023-01-20T08:08:18;98.43;;;35.23;;
69280;SDS011;56392;51.082;17.080;2023-01-20T08:13:43;92.97;;;34.73;;
69280;SDS011;56392;51.082;17.080;2023-01-20T08:19:06;153.80;;;52.65;;
69280;SDS011;56392;51.082;17.080;2023-01-20T08:24:29;203.67;;;63.90;;
69280;SDS011;56392;51.082;17.080;2023-01-20T08:29:54;160.47;;;52.03;;
69280;SDS011;56392;51.082;17.080;2023-01-20T08:35:17;123.00;;;43.83;;
69280;SDS011;56392;51.082;17.080;2023-01-20T08:40:40;117.00;;;43.00;;
69280;SDS011;56392;51.082;17.080;2023-01-20T08:46:06;126.33;;;43.83;;
69280;SDS011;56392;51.082;17.080;2023-01-20T08:51:31;137.50;;;48.53;;
69280;SDS011;56392;51.082;17.080;2023-01-20T08:56:54;115.07;;;43.37;;
69280;SDS011;56392;51.082;17.080;2023-01-20T09:02:19;117.07;;;41.80;;
69280;SDS011;56392;51.082;17.080;2023-01-20T09:07:43;112.57;;;41.97;;
69280;SDS011;56392;51.082;17.080;2023-01-20T09:13:06;107.07;;;40.27;;
69280;SDS011;56392;51.082;17.080;2023-01-20T09:18:31;97.57;;;38.97;;
69280;SDS011;56392;51.082;17.080;2023-01-20T09:23:54;111.07;;;41.03;;
69280;SDS011;56392;51.082;17.080;2023-01-20T09:29:18;112.85;;;42.97;;
69280;SDS011;56392;51.082;17.080;2023-01-20T09:34:43;90.47;;;35.93;;
69280;SDS011;56392;51.082;17.080;2023-01-20T09:40:08;100.95;;;40.25;;
69280;SDS011;56392;51.082;17.080;2023-01-20T09:45:53;87.90;;;34.97;;
69280;SDS011;56392;51.082;17.080;2023-01-20T09:51:22;82.73;;;34.17;;
69280;SDS011;56392;51.082;17.080;2023-01-20T09:57:08;79.60;;;33.72;;
69280;SDS011;56392;51.082;17.080;2023-01-20T10:02:34;77.28;;;31.27;;
69280;SDS011;56392;51.082;17.080;2023-01-20T10:08:01;81.30;;;30.50;;
69280;SDS011;56392;51.082;17.080;2023-01-20T10:13:31;70.15;;;29.85;;
69280;SDS011;56392;51.082;17.080;2023-01-20T10:18:59;78.57;;;33.33;;
69280;SDS011;56392;51.082;17.080;2023-01-20T10:24:30;83.33;;;34.90;;
69280;SDS011;56392;51.082;17.080;2023-01-20T10:29:56;89.05;;;36.33;;
69280;SDS011;56392;51.082;17.080;2023-01-20T10:35:26;85.30;;;34.10;;
69280;SDS011;56392;51.082;17.080;2023-01-20T10:40:52;88.33;;;35.70;;
69280;SDS011;56392;51.082;17.080;2023-01-20T10:46:26;84.07;;;32.70;;
69280;SDS011;56392;51.082;17.080;2023-01-20T10:52:06;80.60;;;32.38;;
69280;SDS011;56392;51.082;17.080;2023-01-20T10:57:41;82.00;;;31.03;;
69280;SDS011;56392;51.082;17.080;2023-01-20T11:03:05;97.75;;;35.78;;
69280;SDS011;56392;51.082;17.080;2023-01-20T11:08:32;90.25;;;35.30;;
69280;SDS011;56392;51.082;17.080;2023-01-20T11:13:56;91.13;;;36.63;;
69280;SDS011;56392;51.082;17.080;2023-01-20T11:19:20;92.72;;;37.05;;
69280;SDS011;56392;51.082;17.080;2023-01-20T11:24:44;89.38;;;37.40;;
69280;SDS011;56392;51.082;17.080;2023-01-20T11:30:18;90.77;;;37.73;;
69280;SDS011;56392;51.082;17.080;2023-01-20T11:35:55;88.97;;;35.57;;
69280;SDS011;56392;51.082;17.080;2023-01-20T11:41:19;89.95;;;36.95;;
69280;SDS011;56392;51.082;17.080;2023-01-20T11:46:45;89.75;;;37.15;;
69280;SDS011;56392;51.082;17.080;2023-01-20T11:52:18;90.73;;;38.47;;
69280;SDS011;56392;51.082;17.080;2023-01-20T11:57:42;96.38;;;39.03;;
69280;SDS011;56392;51.082;17.080;2023-01-20T12:03:17;87.22;;;37.75;;
69280;SDS011;56392;51.082;17.080;2023-01-20T12:08:57;90.13;;;37.83;;
69280;SDS011;56392;51.082;17.080;2023-01-20T12:14:25;93.50;;;37.53;;
69280;SDS011;56392;51.082;17.080;2023-01-20T12:20:00;78.50;;;32.25;;
69280;SDS011;56392;51.082;17.080;2023-01-20T12:25:27;70.20;;;31.93;;
69280;SDS011;56392;51.082;17.080;2023-01-20T12:30:56;76.13;;;30.93;;
69280;SDS011;56392;51.082;17.080;2023-01-20T12:42:24;70.57;;;28.85;;
69280;SDS011;56392;51.082;17.080;2023-01-20T12:48:23;67.97;;;30.30;;
69280;SDS011;56392;51.082;17.080;2023-01-20T12:54:01;71.68;;;30.52;;
69280;SDS011;56392;51.082;17.080;2023-01-20T12:59:43;69.70;;;29.33;;
69280;SDS011;56392;51.082;17.080;2023-01-20T13:05:17;71.13;;;30.27;;
69280;SDS011;56392;51.082;17.080;2023-01-20T13:11:01;64.93;;;28.67;;
69280;SDS011;56392;51.082;17.080;2023-01-20T13:16:35;61.95;;;27.60;;
69280;SDS011;56392;51.082;17.080;2023-01-20T13:22:07;82.80;;;30.53;;
69280;SDS011;56392;51.082;17.080;2023-01-20T13:27:34;60.77;;;27.13;;
69280;SDS011;56392;51.082;17.080;2023-01-20T13:33:01;63.92;;;28.10;;
69280;SDS011;56392;51.082;17.080;2023-01-20T13:38:25;58.58;;;26.45;;
69280;SDS011;56392;51.082;17.080;2023-01-20T13:43:52;60.07;;;25.47;;
69280;SDS011;56392;51.082;17.080;2023-01-20T14:00:53;37.10;;;18.10;;
69280;SDS011;56392;51.082;17.080;2023-01-20T14:06:18;34.65;;;15.77;;
69280;SDS011;56392;51.082;17.080;2023-01-20T14:11:47;38.13;;;17.75;;
69280;SDS011;56392;51.082;17.080;2023-01-20T14:17:14;40.00;;;18.80;;
69280;SDS011;56392;51.082;17.080;2023-01-20T14:22:41;46.50;;;20.60;;
69280;SDS011;56392;51.082;17.080;2023-01-20T14:28:14;42.85;;;19.02;;
69280;SDS011;56392;51.082;17.080;2023-01-20T14:33:45;42.38;;;19.55;;
69280;SDS011;56392;51.082;17.080;2023-01-20T14:39:15;43.33;;;19.23;;
69280;SDS011;56392;51.082;17.080;2023-01-20T14:44:44;39.47;;;18.67;;
69280;SDS011;56392;51.082;17.080;2023-01-20T14:50:12;39.45;;;18.15;;
69280;SDS011;56392;51.082;17.080;2023-01-20T14:55:37;36.53;;;16.10;;
69280;SDS011;56392;51.082;17.080;2023-01-20T15:01:04;33.20;;;15.90;;
69280;SDS011;56392;51.082;17.080;2023-01-20T15:06:29;29.25;;;14.15;;
69280;SDS011;56392;51.082;17.080;2023-01-20T15:18:11;26.30;;;13.37;;
69280;SDS011;56392;51.082;17.080;2023-01-20T15:23:39;26.08;;;13.93;;
69280;SDS011;56392;51.082;17.080;2023-01-20T15:29:16;32.47;;;15.45;;
69280;SDS011;56392;51.082;17.080;2023-01-20T15:34:42;32.97;;;16.27;;
69280;SDS011;56392;51.082;17.080;2023-01-20T15:40:08;33.40;;;16.70;;
69280;SDS011;56392;51.082;17.080;2023-01-20T15:45:37;36.97;;;17.25;;
69280;SDS011;56392;51.082;17.080;2023-01-20T15:51:00;38.50;;;17.50;;
69280;SDS011;56392;51.082;17.080;2023-01-20T15:56:25;42.75;;;19.23;;
69280;SDS011;56392;51.082;17.080;2023-01-20T16:01:50;39.00;;;18.55;;
69280;SDS011;56392;51.082;17.080;2023-01-20T16:07:15;38.33;;;18.33;;
69280;SDS011;56392;51.082;17.080;2023-01-20T16:12:41;40.33;;;18.47;;
69280;SDS011;56392;51.082;17.080;2023-01-20T16:18:04;39.97;;;18.52;;
69280;SDS011;56392;51.082;17.080;2023-01-20T16:23:27;43.25;;;19.00;;
69280;SDS011;56392;51.082;17.080;2023-01-20T16:28:53;44.07;;;20.00;;
69280;SDS011;56392;51.082;17.080;2023-01-20T16:34:17;43.90;;;20.55;;
69280;SDS011;56392;51.082;17.080;2023-01-20T16:39:40;42.78;;;21.63;;
69280;SDS011;56392;51.082;17.080;2023-01-20T16:45:07;45.40;;;20.87;;
69280;SDS011;56392;51.082;17.080;2023-01-20T16:50:44;47.85;;;22.27;;
69280;SDS011;56392;51.082;17.080;2023-01-20T16:56:11;47.38;;;23.23;;
69280;SDS011;56392;51.082;17.080;2023-01-20T17:01:39;52.87;;;23.60;;
69280;SDS011;56392;51.082;17.080;2023-01-20T17:07:02;50.40;;;23.47;;
69280;SDS011;56392;51.082;17.080;2023-01-20T17:12:26;55.38;;;24.17;;
69280;SDS011;56392;51.082;17.080;2023-01-20T17:17:51;53.65;;;25.30;;
69280;SDS011;56392;51.082;17.080;2023-01-20T17:23:16;53.23;;;25.13;;
69280;SDS011;56392;51.082;17.080;2023-01-20T17:28:39;54.50;;;25.92;;
69280;SDS011;56392;51.082;17.080;2023-01-20T17:34:04;56.38;;;25.02;;
69280;SDS011;56392;51.082;17.080;2023-01-20T17:39:28;58.67;;;26.07;;
69280;SDS011;56392;51.082;17.080;2023-01-20T17:44:51;65.68;;;26.92;;
69280;SDS011;56392;51.082;17.080;2023-01-20T17:50:19;63.13;;;28.35;;
69280;SDS011;56392;51.082;17.080;2023-01-20T17:55:43;72.90;;;30.57;;
69280;SDS011;56392;51.082;17.080;2023-01-20T18:01:07;75.07;;;31.53;;
69280;SDS011;56392;51.082;17.080;2023-01-20T18:06:38;72.57;;;31.60;;
69280;SDS011;56392;51.082;17.080;2023-01-20T18:12:01;80.60;;;33.28;;
69280;SDS011;56392;51.082;17.080;2023-01-20T18:17:24;81.23;;;33.87;;
69280;SDS011;56392;51.082;17.080;2023-01-20T18:22:49;81.28;;;33.65;;
69280;SDS011;56392;51.082;17.080;2023-01-20T18:28:12;74.07;;;31.35;;
69280;SDS011;56392;51.082;17.080;2023-01-20T18:33:35;82.80;;;31.03;;
69280;SDS011;56392;51.082;17.080;2023-01-20T18:39:03;77.85;;;31.83;;
69280;SDS011;56392;51.082;17.080;2023-01-20T18:44:27;74.85;;;31.52;;
69280;SDS011;56392;51.082;17.080;2023-01-20T18:49:50;70.00;;;30.23;;
69280;SDS011;56392;51.082;17.080;2023-01-20T18:55:15;72.87;;;29.90;;
69280;SDS011;56392;51.082;17.080;2023-01-20T19:00:38;69.53;;;29.30;;
69280;SDS011;56392;51.082;17.080;2023-01-20T19:06:02;70.95;;;29.38;;
69280;SDS011;56392;51.082;17.080;2023-01-20T19:11:29;69.90;;;29.13;;
69280;SDS011;56392;51.082;17.080;2023-01-20T19:16:54;70.82;;;29.40;;
69280;SDS011;56392;51.082;17.080;2023-01-20T19:22:17;68.82;;;30.02;;
69280;SDS011;56392;51.082;17.080;2023-01-20T19:27:42;67.77;;;29.10;;
69280;SDS011;56392;51.082;17.080;2023-01-20T19:33:05;75.30;;;31.92;;
69280;SDS011;56392;51.082;17.080;2023-01-20T19:38:32;74.18;;;31.27;;
69280;SDS011;56392;51.082;17.080;2023-01-20T19:43:57;77.37;;;31.73;;
69280;SDS011;56392;51.082;17.080;2023-01-20T19:49:22;76.43;;;31.47;;
69280;SDS011;56392;51.082;17.080;2023-01-20T19:54:45;77.22;;;32.22;;
69280;SDS011;56392;51.082;17.080;2023-01-20T20:00:10;79.88;;;32.80;;
69280;SDS011;56392;51.082;17.080;2023-01-20T20:05:35;80.23;;;33.00;;
69280;SDS011;56392;51.082;17.080;2023-01-20T20:10:58;87.30;;;34.67;;
69280;SDS011;56392;51.082;17.080;2023-01-20T20:16:24;80.45;;;32.83;;
69280;SDS011;56392;51.082;17.080;2023-01-20T20:21:49;81.87;;;29.90;;
69280;SDS011;56392;51.082;17.080;2023-01-20T20:27:14;78.13;;;31.48;;
69280;SDS011;56392;51.082;17.080;2023-01-20T20:32:38;79.72;;;31.55;;
69280;SDS011;56392;51.082;17.080;2023-01-20T20:38:01;90.23;;;31.30;;
69280;SDS011;56392;51.082;17.080;2023-01-20T20:43:26;78.17;;;31.63;;
69280;SDS011;56392;51.082;17.080;2023-01-20T20:48:52;86.75;;;33.63;;
69280;SDS011;56392;51.082;17.080;2023-01-20T20:54:17;87.25;;;34.25;;
69280;SDS011;56392;51.082;17.080;2023-01-20T20:59:40;90.90;;;32.53;;
69280;SDS011;56392;51.082;17.080;2023-01-20T21:05:06;86.68;;;33.58;;
69280;SDS011;56392;51.082;17.080;2023-01-20T21:10:29;94.82;;;35.03;;
69280;SDS011;56392;51.082;17.080;2023-01-20T21:15:53;92.33;;;35.77;;
69280;SDS011;56392;51.082;17.080;2023-01-20T21:21:21;93.88;;;35.95;;
69280;SDS011;56392;51.082;17.080;2023-01-20T21:26:45;92.35;;;32.97;;
69280;SDS011;56392;51.082;17.080;2023-01-20T21:32:08;87.47;;;30.10;;
69280;SDS011;56392;51.082;17.080;2023-01-20T21:37:32;81.17;;;26.73;;
69280;SDS011;56392;51.082;17.080;2023-01-20T21:42:55;88.20;;;27.65;;
69280;SDS011;56392;51.082;17.080;2023-01-20T21:48:40;83.13;;;26.88;;
69280;SDS011;56392;51.082;17.080;2023-01-20T21:54:23;86.17;;;27.50;;
69280;SDS011;56392;51.082;17.080;2023-01-20T21:59:49;89.10;;;26.35;;
69280;SDS011;56392;51.082;17.080;2023-01-20T22:05:12;99.85;;;27.40;;
69280;SDS011;56392;51.082;17.080;2023-01-20T22:10:37;95.07;;;26.63;;
69280;SDS011;56392;51.082;17.080;2023-01-20T22:16:00;87.10;;;25.65;;
69280;SDS011;56392;51.082;17.080;2023-01-20T22:21:23;82.07;;;25.02;;
69280;SDS011;56392;51.082;17.080;2023-01-20T22:26:48;74.93;;;22.90;;
69280;SDS011;56392;51.082;17.080;2023-01-20T22:32:12;78.70;;;23.85;;
69280;SDS011;56392;51.082;17.080;2023-01-20T22:37:35;81.80;;;24.10;;
69280;SDS011;56392;51.082;17.080;2023-01-20T22:43:00;89.73;;;24.27;;
69280;SDS011;56392;51.082;17.080;2023-01-20T22:48:23;77.53;;;23.02;;
69280;SDS011;56392;51.082;17.080;2023-01-20T22:53:46;76.70;;;23.20;;
69280;SDS011;56392;51.082;17.080;2023-01-20T22:59:10;73.73;;;22.37;;
69280;SDS011;56392;51.082;17.080;2023-01-20T23:04:34;75.57;;;22.90;;
69280;SDS011;56392;51.082;17.080;2023-01-20T23:09:57;72.80;;;22.33;;
69280;SDS011;56392;51.082;17.080;2023-01-20T23:15:22;69.97;;;22.17;;
69280;SDS011;56392;51.082;17.080;2023-01-20T23:20:46;62.40;;;21.10;;
69280;SDS011;56392;51.082;17.080;2023-01-20T23:26:11;65.63;;;20.77;;
69280;SDS011;56392;51.082;17.080;2023-01-20T23:31:37;62.63;;;20.90;;
69280;SDS011;56392;51.082;17.080;2023-01-20T23:37:00;62.50;;;20.73;;
69280;SDS011;56392;51.082;17.080;2023-01-20T23:42:24;61.95;;;19.90;;
69280;SDS011;56392;51.082;17.080;2023-01-20T23:47:48;60.23;;;20.30;;
69280;SDS011;56392;51.082;17.080;2023-01-20T23:53:11;60.15;;;20.25;;
69280;SDS011;56392;51.082;17.080;2023-01-20T23:58:34;59.25;;;20.77;;
